sensor_id;sensor_type;location;lat;lon;timestamp;P1;durP1;ratioP1;P2;durP2;ratioP2
75810;SDS011;64449;50.016;19.954;2022-11-21T00:01:55;72.00;;;31.40;;
75810;SDS011;64449;50.016;19.954;2022-11-21T00:04:20;64.10;;;29.90;;
75810;SDS011;64449;50.016;19.954;2022-11-21T00:06:46;72.20;;;35.20;;
75810;SDS011;64449;50.016;19.954;2022-11-21T00:09:11;64.80;;;31.30;;
75810;SDS011;64449;50.016;19.954;2022-11-21T00:11:36;69.30;;;31.80;;
75810;SDS011;64449;50.016;19.954;2022-11-21T00:14:02;65.30;;;30.40;;
75810;SDS011;64449;50.016;19.954;2022-11-21T00:18:52;68.70;;;31.80;;
75810;SDS011;64449;50.016;19.954;2022-11-21T00:21:18;61.70;;;29.80;;
75810;SDS011;64449;50.016;19.954;2022-11-21T00:23:44;72.60;;;34.40;;
75810;SDS011;64449;50.016;19.954;2022-11-21T00:26:11;69.00;;;33.30;;
75810;SDS011;64449;50.016;19.954;2022-11-21T00:28:38;77.60;;;35.20;;
75810;SDS011;64449;50.016;19.954;2022-11-21T00:31:03;73.30;;;35.00;;
75810;SDS011;64449;50.016;19.954;2022-11-21T00:33:30;64.80;;;30.60;;
75810;SDS011;64449;50.016;19.954;2022-11-21T00:35:55;73.90;;;35.40;;
75810;SDS011;64449;50.016;19.954;2022-11-21T00:40:48;61.50;;;29.30;;
75810;SDS011;64449;50.016;19.954;2022-11-21T00:43:13;66.60;;;32.60;;
75810;SDS011;64449;50.016;19.954;2022-11-21T00:45:39;67.60;;;30.90;;
75810;SDS011;64449;50.016;19.954;2022-11-21T00:48:04;68.00;;;29.80;;
75810;SDS011;64449;50.016;19.954;2022-11-21T00:50:30;73.50;;;35.30;;
75810;SDS011;64449;50.016;19.954;2022-11-21T00:55:21;61.00;;;28.40;;
75810;SDS011;64449;50.016;19.954;2022-11-21T00:57:47;60.90;;;31.90;;
75810;SDS011;64449;50.016;19.954;2022-11-21T01:00:13;71.10;;;34.80;;
75810;SDS011;64449;50.016;19.954;2022-11-21T01:02:38;69.00;;;34.00;;
75810;SDS011;64449;50.016;19.954;2022-11-21T01:05:04;66.30;;;30.30;;
75810;SDS011;64449;50.016;19.954;2022-11-21T01:07:30;72.30;;;35.40;;
75810;SDS011;64449;50.016;19.954;2022-11-21T01:09:56;66.70;;;34.40;;
75810;SDS011;64449;50.016;19.954;2022-11-21T01:12:22;68.70;;;33.40;;
75810;SDS011;64449;50.016;19.954;2022-11-21T01:17:12;71.50;;;33.10;;
75810;SDS011;64449;50.016;19.954;2022-11-21T01:19:38;69.30;;;34.10;;
75810;SDS011;64449;50.016;19.954;2022-11-21T01:24:29;65.00;;;29.80;;
75810;SDS011;64449;50.016;19.954;2022-11-21T01:29:20;63.80;;;28.20;;
75810;SDS011;64449;50.016;19.954;2022-11-21T01:31:45;68.10;;;33.10;;
75810;SDS011;64449;50.016;19.954;2022-11-21T01:34:10;66.80;;;31.50;;
75810;SDS011;64449;50.016;19.954;2022-11-21T01:39:03;63.80;;;29.40;;
75810;SDS011;64449;50.016;19.954;2022-11-21T01:41:31;64.30;;;31.70;;
75810;SDS011;64449;50.016;19.954;2022-11-21T01:43:59;70.40;;;33.40;;
75810;SDS011;64449;50.016;19.954;2022-11-21T01:46:26;64.50;;;31.80;;
75810;SDS011;64449;50.016;19.954;2022-11-21T01:51:28;66.10;;;31.30;;
75810;SDS011;64449;50.016;19.954;2022-11-21T01:56:52;63.30;;;28.90;;
75810;SDS011;64449;50.016;19.954;2022-11-21T01:59:25;62.60;;;29.60;;
75810;SDS011;64449;50.016;19.954;2022-11-21T02:01:53;69.00;;;32.30;;
75810;SDS011;64449;50.016;19.954;2022-11-21T02:04:21;61.70;;;30.70;;
75810;SDS011;64449;50.016;19.954;2022-11-21T02:06:52;61.70;;;31.20;;
75810;SDS011;64449;50.016;19.954;2022-11-21T02:09:17;60.40;;;31.30;;
75810;SDS011;64449;50.016;19.954;2022-11-21T02:11:45;65.70;;;32.90;;
75810;SDS011;64449;50.016;19.954;2022-11-21T02:14:15;63.30;;;30.60;;
75810;SDS011;64449;50.016;19.954;2022-11-21T02:16:40;63.50;;;31.60;;
75810;SDS011;64449;50.016;19.954;2022-11-21T02:19:09;72.30;;;35.80;;
75810;SDS011;64449;50.016;19.954;2022-11-21T02:22:00;69.60;;;32.30;;
75810;SDS011;64449;50.016;19.954;2022-11-21T02:27:20;64.50;;;31.30;;
75810;SDS011;64449;50.016;19.954;2022-11-21T02:29:45;73.00;;;34.70;;
75810;SDS011;64449;50.016;19.954;2022-11-21T02:32:19;70.00;;;32.90;;
75810;SDS011;64449;50.016;19.954;2022-11-21T02:34:46;69.30;;;33.90;;
75810;SDS011;64449;50.016;19.954;2022-11-21T02:37:11;67.90;;;34.80;;
75810;SDS011;64449;50.016;19.954;2022-11-21T02:39:37;65.00;;;32.40;;
75810;SDS011;64449;50.016;19.954;2022-11-21T02:42:04;67.70;;;33.30;;
75810;SDS011;64449;50.016;19.954;2022-11-21T02:44:43;63.80;;;31.00;;
75810;SDS011;64449;50.016;19.954;2022-11-21T02:47:29;67.20;;;32.50;;
75810;SDS011;64449;50.016;19.954;2022-11-21T02:50:02;67.30;;;32.60;;
75810;SDS011;64449;50.016;19.954;2022-11-21T02:52:37;67.80;;;30.30;;
75810;SDS011;64449;50.016;19.954;2022-11-21T02:55:03;70.60;;;33.20;;
75810;SDS011;64449;50.016;19.954;2022-11-21T02:57:30;69.90;;;31.00;;
75810;SDS011;64449;50.016;19.954;2022-11-21T02:59:55;68.70;;;32.10;;
75810;SDS011;64449;50.016;19.954;2022-11-21T03:02:21;70.60;;;33.10;;
75810;SDS011;64449;50.016;19.954;2022-11-21T03:04:46;59.70;;;30.00;;
75810;SDS011;64449;50.016;19.954;2022-11-21T03:09:37;55.20;;;27.40;;
75810;SDS011;64449;50.016;19.954;2022-11-21T03:12:06;62.90;;;28.00;;
75810;SDS011;64449;50.016;19.954;2022-11-21T03:14:33;60.00;;;26.20;;
75810;SDS011;64449;50.016;19.954;2022-11-21T03:16:59;53.90;;;26.90;;
75810;SDS011;64449;50.016;19.954;2022-11-21T03:19:24;57.10;;;25.50;;
75810;SDS011;64449;50.016;19.954;2022-11-21T03:21:49;55.00;;;28.60;;
75810;SDS011;64449;50.016;19.954;2022-11-21T03:24:15;53.90;;;24.50;;
75810;SDS011;64449;50.016;19.954;2022-11-21T03:26:40;49.10;;;22.40;;
75810;SDS011;64449;50.016;19.954;2022-11-21T03:29:06;52.20;;;22.60;;
75810;SDS011;64449;50.016;19.954;2022-11-21T03:31:31;42.80;;;21.70;;
75810;SDS011;64449;50.016;19.954;2022-11-21T03:33:56;46.40;;;21.40;;
75810;SDS011;64449;50.016;19.954;2022-11-21T03:36:22;44.10;;;21.80;;
75810;SDS011;64449;50.016;19.954;2022-11-21T03:38:48;43.50;;;24.90;;
75810;SDS011;64449;50.016;19.954;2022-11-21T03:41:13;52.00;;;24.60;;
75810;SDS011;64449;50.016;19.954;2022-11-21T03:43:54;52.70;;;25.40;;
75810;SDS011;64449;50.016;19.954;2022-11-21T03:46:23;62.50;;;28.20;;
75810;SDS011;64449;50.016;19.954;2022-11-21T03:48:49;66.20;;;31.60;;
75810;SDS011;64449;50.016;19.954;2022-11-21T03:51:14;66.30;;;32.30;;
75810;SDS011;64449;50.016;19.954;2022-11-21T03:53:40;75.50;;;33.10;;
75810;SDS011;64449;50.016;19.954;2022-11-21T03:56:05;69.80;;;36.20;;
75810;SDS011;64449;50.016;19.954;2022-11-21T03:58:30;74.60;;;36.00;;
75810;SDS011;64449;50.016;19.954;2022-11-21T04:00:56;68.90;;;34.30;;
75810;SDS011;64449;50.016;19.954;2022-11-21T04:03:21;76.00;;;36.20;;
75810;SDS011;64449;50.016;19.954;2022-11-21T04:05:47;65.50;;;31.20;;
75810;SDS011;64449;50.016;19.954;2022-11-21T04:10:37;65.70;;;28.30;;
75810;SDS011;64449;50.016;19.954;2022-11-21T04:13:03;66.60;;;32.20;;
75810;SDS011;64449;50.016;19.954;2022-11-21T04:17:53;63.70;;;29.30;;
75810;SDS011;64449;50.016;19.954;2022-11-21T04:20:19;64.50;;;29.20;;
75810;SDS011;64449;50.016;19.954;2022-11-21T04:22:44;69.90;;;32.10;;
75810;SDS011;64449;50.016;19.954;2022-11-21T04:25:09;73.30;;;34.00;;
75810;SDS011;64449;50.016;19.954;2022-11-21T04:27:35;63.10;;;31.50;;
75810;SDS011;64449;50.016;19.954;2022-11-21T04:30:00;54.30;;;26.50;;
75810;SDS011;64449;50.016;19.954;2022-11-21T04:32:26;62.40;;;30.70;;
75810;SDS011;64449;50.016;19.954;2022-11-21T04:34:51;61.00;;;27.80;;
75810;SDS011;64449;50.016;19.954;2022-11-21T04:37:17;57.70;;;28.10;;
75810;SDS011;64449;50.016;19.954;2022-11-21T04:39:42;55.30;;;27.60;;
75810;SDS011;64449;50.016;19.954;2022-11-21T04:42:07;57.30;;;29.00;;
75810;SDS011;64449;50.016;19.954;2022-11-21T04:44:33;45.80;;;20.60;;
75810;SDS011;64449;50.016;19.954;2022-11-21T04:46:58;48.70;;;20.90;;
75810;SDS011;64449;50.016;19.954;2022-11-21T04:49:24;59.50;;;27.40;;
75810;SDS011;64449;50.016;19.954;2022-11-21T04:51:49;40.40;;;18.50;;
75810;SDS011;64449;50.016;19.954;2022-11-21T04:54:15;43.70;;;21.10;;
75810;SDS011;64449;50.016;19.954;2022-11-21T04:56:40;43.70;;;22.30;;
75810;SDS011;64449;50.016;19.954;2022-11-21T04:59:06;46.90;;;23.80;;
75810;SDS011;64449;50.016;19.954;2022-11-21T05:01:31;59.60;;;28.30;;
75810;SDS011;64449;50.016;19.954;2022-11-21T05:03:56;53.80;;;27.30;;
75810;SDS011;64449;50.016;19.954;2022-11-21T05:06:22;52.00;;;25.30;;
75810;SDS011;64449;50.016;19.954;2022-11-21T05:08:47;52.00;;;26.50;;
75810;SDS011;64449;50.016;19.954;2022-11-21T05:11:12;52.60;;;27.80;;
75810;SDS011;64449;50.016;19.954;2022-11-21T05:13:56;50.70;;;25.20;;
75810;SDS011;64449;50.016;19.954;2022-11-21T05:16:22;45.00;;;22.00;;
75810;SDS011;64449;50.016;19.954;2022-11-21T05:18:47;43.70;;;20.70;;
75810;SDS011;64449;50.016;19.954;2022-11-21T05:21:13;42.90;;;19.80;;
75810;SDS011;64449;50.016;19.954;2022-11-21T05:23:38;37.80;;;19.20;;
75810;SDS011;64449;50.016;19.954;2022-11-21T05:26:03;38.70;;;18.70;;
75810;SDS011;64449;50.016;19.954;2022-11-21T05:28:28;31.30;;;14.60;;
75810;SDS011;64449;50.016;19.954;2022-11-21T05:30:54;33.50;;;17.20;;
75810;SDS011;64449;50.016;19.954;2022-11-21T05:33:19;34.50;;;14.80;;
75810;SDS011;64449;50.016;19.954;2022-11-21T05:35:45;38.60;;;17.60;;
75810;SDS011;64449;50.016;19.954;2022-11-21T05:40:35;30.10;;;14.00;;
75810;SDS011;64449;50.016;19.954;2022-11-21T05:43:01;34.20;;;16.50;;
75810;SDS011;64449;50.016;19.954;2022-11-21T05:45:44;28.20;;;13.90;;
75810;SDS011;64449;50.016;19.954;2022-11-21T05:48:13;38.10;;;17.40;;
75810;SDS011;64449;50.016;19.954;2022-11-21T05:50:38;35.90;;;16.20;;
75810;SDS011;64449;50.016;19.954;2022-11-21T05:53:03;35.90;;;17.10;;
75810;SDS011;64449;50.016;19.954;2022-11-21T05:55:29;32.90;;;15.20;;
75810;SDS011;64449;50.016;19.954;2022-11-21T05:57:58;28.90;;;14.20;;
75810;SDS011;64449;50.016;19.954;2022-11-21T06:00:24;32.50;;;16.30;;
75810;SDS011;64449;50.016;19.954;2022-11-21T06:02:50;37.20;;;17.30;;
75810;SDS011;64449;50.016;19.954;2022-11-21T06:05:33;38.90;;;19.80;;
75810;SDS011;64449;50.016;19.954;2022-11-21T06:07:58;42.40;;;21.70;;
75810;SDS011;64449;50.016;19.954;2022-11-21T06:10:24;44.90;;;23.80;;
75810;SDS011;64449;50.016;19.954;2022-11-21T06:12:49;62.70;;;29.80;;
75810;SDS011;64449;50.016;19.954;2022-11-21T06:15:14;62.80;;;29.40;;
75810;SDS011;64449;50.016;19.954;2022-11-21T06:17:40;66.40;;;32.70;;
75810;SDS011;64449;50.016;19.954;2022-11-21T06:20:05;63.90;;;33.20;;
75810;SDS011;64449;50.016;19.954;2022-11-21T06:22:31;63.10;;;32.70;;
75810;SDS011;64449;50.016;19.954;2022-11-21T06:24:57;67.40;;;34.80;;
75810;SDS011;64449;50.016;19.954;2022-11-21T06:27:22;72.10;;;34.10;;
75810;SDS011;64449;50.016;19.954;2022-11-21T06:29:47;67.20;;;34.80;;
75810;SDS011;64449;50.016;19.954;2022-11-21T06:32:13;57.40;;;28.20;;
75810;SDS011;64449;50.016;19.954;2022-11-21T06:34:38;57.10;;;27.40;;
75810;SDS011;64449;50.016;19.954;2022-11-21T06:37:03;57.80;;;28.60;;
75810;SDS011;64449;50.016;19.954;2022-11-21T06:39:29;60.50;;;31.10;;
75810;SDS011;64449;50.016;19.954;2022-11-21T06:41:54;55.60;;;27.50;;
75810;SDS011;64449;50.016;19.954;2022-11-21T06:44:20;55.80;;;27.60;;
75810;SDS011;64449;50.016;19.954;2022-11-21T06:46:45;55.20;;;28.20;;
75810;SDS011;64449;50.016;19.954;2022-11-21T06:49:10;61.00;;;29.70;;
75810;SDS011;64449;50.016;19.954;2022-11-21T06:51:36;56.90;;;28.90;;
75810;SDS011;64449;50.016;19.954;2022-11-21T06:56:28;63.00;;;28.90;;
75810;SDS011;64449;50.016;19.954;2022-11-21T06:58:54;60.80;;;29.60;;
75810;SDS011;64449;50.016;19.954;2022-11-21T07:01:20;69.00;;;33.40;;
75810;SDS011;64449;50.016;19.954;2022-11-21T07:03:46;66.40;;;32.20;;
75810;SDS011;64449;50.016;19.954;2022-11-21T07:06:12;66.70;;;32.40;;
75810;SDS011;64449;50.016;19.954;2022-11-21T07:08:37;67.60;;;33.20;;
75810;SDS011;64449;50.016;19.954;2022-11-21T07:11:09;56.90;;;27.70;;
75810;SDS011;64449;50.016;19.954;2022-11-21T07:13:35;68.60;;;32.00;;
75810;SDS011;64449;50.016;19.954;2022-11-21T07:16:02;65.90;;;31.70;;
75810;SDS011;64449;50.016;19.954;2022-11-21T07:18:32;57.50;;;26.70;;
75810;SDS011;64449;50.016;19.954;2022-11-21T07:20:59;55.10;;;29.40;;
75810;SDS011;64449;50.016;19.954;2022-11-21T07:23:26;58.60;;;30.20;;
75810;SDS011;64449;50.016;19.954;2022-11-21T07:25:52;62.90;;;29.20;;
75810;SDS011;64449;50.016;19.954;2022-11-21T07:28:17;62.40;;;31.80;;
75810;SDS011;64449;50.016;19.954;2022-11-21T07:33:08;62.60;;;31.40;;
75810;SDS011;64449;50.016;19.954;2022-11-21T07:35:34;62.10;;;31.90;;
75810;SDS011;64449;50.016;19.954;2022-11-21T07:38:00;68.80;;;33.60;;
75810;SDS011;64449;50.016;19.954;2022-11-21T07:40:26;70.50;;;35.10;;
75810;SDS011;64449;50.016;19.954;2022-11-21T07:42:52;61.30;;;32.00;;
75810;SDS011;64449;50.016;19.954;2022-11-21T07:45:18;64.00;;;29.90;;
75810;SDS011;64449;50.016;19.954;2022-11-21T07:47:44;66.80;;;32.00;;
75810;SDS011;64449;50.016;19.954;2022-11-21T07:50:10;73.60;;;34.50;;
75810;SDS011;64449;50.016;19.954;2022-11-21T07:52:36;66.80;;;34.00;;
75810;SDS011;64449;50.016;19.954;2022-11-21T07:55:02;67.70;;;33.00;;
75810;SDS011;64449;50.016;19.954;2022-11-21T07:57:30;63.30;;;31.90;;
75810;SDS011;64449;50.016;19.954;2022-11-21T07:59:56;68.20;;;33.80;;
75810;SDS011;64449;50.016;19.954;2022-11-21T08:02:25;72.60;;;33.70;;
75810;SDS011;64449;50.016;19.954;2022-11-21T08:04:52;72.50;;;36.70;;
75810;SDS011;64449;50.016;19.954;2022-11-21T08:07:19;69.20;;;35.50;;
75810;SDS011;64449;50.016;19.954;2022-11-21T08:09:46;63.50;;;30.40;;
75810;SDS011;64449;50.016;19.954;2022-11-21T08:12:12;65.70;;;32.60;;
75810;SDS011;64449;50.016;19.954;2022-11-21T08:14:38;70.60;;;35.60;;
75810;SDS011;64449;50.016;19.954;2022-11-21T08:17:03;74.40;;;34.00;;
75810;SDS011;64449;50.016;19.954;2022-11-21T08:19:30;64.10;;;33.60;;
75810;SDS011;64449;50.016;19.954;2022-11-21T08:21:55;64.10;;;33.30;;
75810;SDS011;64449;50.016;19.954;2022-11-21T08:24:20;64.40;;;33.80;;
75810;SDS011;64449;50.016;19.954;2022-11-21T08:29:11;64.40;;;31.50;;
75810;SDS011;64449;50.016;19.954;2022-11-21T08:31:39;57.70;;;31.20;;
75810;SDS011;64449;50.016;19.954;2022-11-21T08:34:05;59.10;;;32.50;;
75810;SDS011;64449;50.016;19.954;2022-11-21T08:36:30;67.00;;;34.20;;
75810;SDS011;64449;50.016;19.954;2022-11-21T08:38:56;69.00;;;36.80;;
75810;SDS011;64449;50.016;19.954;2022-11-21T08:41:21;66.10;;;32.40;;
75810;SDS011;64449;50.016;19.954;2022-11-21T08:44:05;62.10;;;33.50;;
75810;SDS011;64449;50.016;19.954;2022-11-21T08:46:33;61.40;;;34.50;;
75810;SDS011;64449;50.016;19.954;2022-11-21T08:49:01;62.70;;;34.10;;
75810;SDS011;64449;50.016;19.954;2022-11-21T08:51:28;66.80;;;35.60;;
75810;SDS011;64449;50.016;19.954;2022-11-21T08:53:53;65.70;;;34.70;;
75810;SDS011;64449;50.016;19.954;2022-11-21T08:56:18;65.40;;;34.40;;
75810;SDS011;64449;50.016;19.954;2022-11-21T08:58:44;59.90;;;32.80;;
75810;SDS011;64449;50.016;19.954;2022-11-21T09:01:09;55.60;;;31.30;;
75810;SDS011;64449;50.016;19.954;2022-11-21T09:03:35;60.70;;;33.70;;
75810;SDS011;64449;50.016;19.954;2022-11-21T09:06:00;59.00;;;33.80;;
75810;SDS011;64449;50.016;19.954;2022-11-21T09:08:26;58.40;;;33.70;;
75810;SDS011;64449;50.016;19.954;2022-11-21T09:10:51;54.20;;;31.40;;
75810;SDS011;64449;50.016;19.954;2022-11-21T09:13:17;60.50;;;34.50;;
75810;SDS011;64449;50.016;19.954;2022-11-21T09:15:42;58.30;;;29.60;;
75810;SDS011;64449;50.016;19.954;2022-11-21T09:18:26;55.10;;;31.40;;
75810;SDS011;64449;50.016;19.954;2022-11-21T09:20:51;57.00;;;33.10;;
75810;SDS011;64449;50.016;19.954;2022-11-21T09:23:17;58.30;;;33.40;;
75810;SDS011;64449;50.016;19.954;2022-11-21T09:25:42;61.00;;;34.60;;
75810;SDS011;64449;50.016;19.954;2022-11-21T09:28:09;63.10;;;35.30;;
75810;SDS011;64449;50.016;19.954;2022-11-21T09:30:35;57.70;;;31.70;;
75810;SDS011;64449;50.016;19.954;2022-11-21T09:33:02;57.30;;;32.60;;
75810;SDS011;64449;50.016;19.954;2022-11-21T09:35:29;56.50;;;32.60;;
75810;SDS011;64449;50.016;19.954;2022-11-21T09:37:55;57.50;;;29.80;;
75810;SDS011;64449;50.016;19.954;2022-11-21T09:40:20;51.00;;;31.80;;
75810;SDS011;64449;50.016;19.954;2022-11-21T09:42:51;55.90;;;33.20;;
75810;SDS011;64449;50.016;19.954;2022-11-21T09:45:20;54.80;;;32.00;;
75810;SDS011;64449;50.016;19.954;2022-11-21T09:47:50;52.40;;;31.30;;
75810;SDS011;64449;50.016;19.954;2022-11-21T09:50:20;53.10;;;31.30;;
75810;SDS011;64449;50.016;19.954;2022-11-21T09:55:44;55.60;;;32.90;;
75810;SDS011;64449;50.016;19.954;2022-11-21T09:58:19;58.80;;;31.00;;
75810;SDS011;64449;50.016;19.954;2022-11-21T10:00:49;52.10;;;31.00;;
75810;SDS011;64449;50.016;19.954;2022-11-21T10:03:15;55.00;;;30.80;;
75810;SDS011;64449;50.016;19.954;2022-11-21T10:06:01;51.70;;;30.20;;
75810;SDS011;64449;50.016;19.954;2022-11-21T10:13:38;49.90;;;26.80;;
75810;SDS011;64449;50.016;19.954;2022-11-21T10:16:17;49.20;;;28.90;;
75810;SDS011;64449;50.016;19.954;2022-11-21T10:24:39;50.90;;;26.90;;
75810;SDS011;64449;50.016;19.954;2022-11-21T10:27:13;46.70;;;26.00;;
75810;SDS011;64449;50.016;19.954;2022-11-21T10:29:52;47.50;;;26.70;;
75810;SDS011;64449;50.016;19.954;2022-11-21T10:35:13;49.10;;;27.40;;
75810;SDS011;64449;50.016;19.954;2022-11-21T10:37:41;48.20;;;26.10;;
75810;SDS011;64449;50.016;19.954;2022-11-21T10:42:44;46.10;;;23.30;;
75810;SDS011;64449;50.016;19.954;2022-11-21T10:45:18;47.40;;;26.10;;
75810;SDS011;64449;50.016;19.954;2022-11-21T10:47:53;43.20;;;26.10;;
75810;SDS011;64449;50.016;19.954;2022-11-21T10:56:01;43.50;;;24.80;;
75810;SDS011;64449;50.016;19.954;2022-11-21T10:59:01;44.60;;;23.70;;
75810;SDS011;64449;50.016;19.954;2022-11-21T11:03:50;49.20;;;25.60;;
75810;SDS011;64449;50.016;19.954;2022-11-21T11:06:41;42.80;;;23.60;;
75810;SDS011;64449;50.016;19.954;2022-11-21T11:09:21;47.90;;;26.10;;
75810;SDS011;64449;50.016;19.954;2022-11-21T11:11:47;51.80;;;26.70;;
75810;SDS011;64449;50.016;19.954;2022-11-21T11:14:13;45.30;;;25.20;;
75810;SDS011;64449;50.016;19.954;2022-11-21T11:16:43;44.50;;;24.50;;
75810;SDS011;64449;50.016;19.954;2022-11-21T11:31:51;46.20;;;24.20;;
75810;SDS011;64449;50.016;19.954;2022-11-21T11:34:45;43.20;;;25.30;;
75810;SDS011;64449;50.016;19.954;2022-11-21T11:37:40;43.60;;;25.60;;
75810;SDS011;64449;50.016;19.954;2022-11-21T11:42:52;30.20;;;16.30;;
75810;SDS011;64449;50.016;19.954;2022-11-21T11:48:41;40.70;;;21.80;;
75810;SDS011;64449;50.016;19.954;2022-11-21T11:51:41;42.60;;;23.20;;
75810;SDS011;64449;50.016;19.954;2022-11-21T11:54:06;48.90;;;25.70;;
75810;SDS011;64449;50.016;19.954;2022-11-21T11:56:37;50.40;;;27.50;;
75810;SDS011;64449;50.016;19.954;2022-11-21T12:01:42;49.80;;;27.20;;
75810;SDS011;64449;50.016;19.954;2022-11-21T12:04:16;49.50;;;25.50;;
75810;SDS011;64449;50.016;19.954;2022-11-21T12:06:45;46.80;;;26.30;;
75810;SDS011;64449;50.016;19.954;2022-11-21T12:20:30;45.90;;;25.70;;
75810;SDS011;64449;50.016;19.954;2022-11-21T12:22:56;44.10;;;23.90;;
75810;SDS011;64449;50.016;19.954;2022-11-21T12:25:29;44.80;;;25.60;;
75810;SDS011;64449;50.016;19.954;2022-11-21T12:28:00;50.00;;;26.80;;
75810;SDS011;64449;50.016;19.954;2022-11-21T12:33:30;50.00;;;26.90;;
75810;SDS011;64449;50.016;19.954;2022-11-21T12:41:59;48.60;;;25.50;;
75810;SDS011;64449;50.016;19.954;2022-11-21T12:50:30;44.60;;;23.20;;
75810;SDS011;64449;50.016;19.954;2022-11-21T12:53:28;45.40;;;24.60;;
75810;SDS011;64449;50.016;19.954;2022-11-21T12:59:14;48.10;;;25.20;;
75810;SDS011;64449;50.016;19.954;2022-11-21T13:04:25;47.00;;;25.80;;
75810;SDS011;64449;50.016;19.954;2022-11-21T13:06:54;44.50;;;24.00;;
75810;SDS011;64449;50.016;19.954;2022-11-21T13:09:21;40.00;;;22.20;;
75810;SDS011;64449;50.016;19.954;2022-11-21T13:12:24;46.20;;;27.00;;
75810;SDS011;64449;50.016;19.954;2022-11-21T13:14:51;43.40;;;23.10;;
75810;SDS011;64449;50.016;19.954;2022-11-21T13:17:56;40.60;;;23.00;;
75810;SDS011;64449;50.016;19.954;2022-11-21T13:22:50;46.20;;;24.40;;
75810;SDS011;64449;50.016;19.954;2022-11-21T13:30:39;41.90;;;24.80;;
75810;SDS011;64449;50.016;19.954;2022-11-21T13:33:12;49.50;;;26.10;;
75810;SDS011;64449;50.016;19.954;2022-11-21T13:36:00;47.80;;;25.00;;
75810;SDS011;64449;50.016;19.954;2022-11-21T13:38:25;45.80;;;25.90;;
75810;SDS011;64449;50.016;19.954;2022-11-21T13:40:51;45.80;;;26.70;;
75810;SDS011;64449;50.016;19.954;2022-11-21T13:43:34;45.40;;;26.20;;
75810;SDS011;64449;50.016;19.954;2022-11-21T13:46:01;54.20;;;27.20;;
75810;SDS011;64449;50.016;19.954;2022-11-21T14:08:34;47.70;;;25.50;;
75810;SDS011;64449;50.016;19.954;2022-11-21T14:11:01;45.90;;;25.20;;
75810;SDS011;64449;50.016;19.954;2022-11-21T14:13:46;42.80;;;24.50;;
75810;SDS011;64449;50.016;19.954;2022-11-21T14:16:34;44.30;;;24.20;;
75810;SDS011;64449;50.016;19.954;2022-11-21T14:19:05;47.40;;;25.90;;
75810;SDS011;64449;50.016;19.954;2022-11-21T14:21:41;47.20;;;25.80;;
75810;SDS011;64449;50.016;19.954;2022-11-21T14:24:19;34.90;;;19.00;;
75810;SDS011;64449;50.016;19.954;2022-11-21T14:26:45;39.50;;;21.50;;
75810;SDS011;64449;50.016;19.954;2022-11-21T14:32:04;40.30;;;20.70;;
75810;SDS011;64449;50.016;19.954;2022-11-21T14:34:30;39.80;;;22.50;;
75810;SDS011;64449;50.016;19.954;2022-11-21T14:37:01;42.10;;;23.80;;
75810;SDS011;64449;50.016;19.954;2022-11-21T14:39:30;36.70;;;18.20;;
75810;SDS011;64449;50.016;19.954;2022-11-21T14:42:00;45.00;;;23.40;;
75810;SDS011;64449;50.016;19.954;2022-11-21T14:44:27;38.10;;;20.80;;
75810;SDS011;64449;50.016;19.954;2022-11-21T14:49:51;39.50;;;22.10;;
75810;SDS011;64449;50.016;19.954;2022-11-21T14:52:27;43.20;;;24.60;;
75810;SDS011;64449;50.016;19.954;2022-11-21T14:54:56;44.70;;;25.80;;
75810;SDS011;64449;50.016;19.954;2022-11-21T14:57:23;47.30;;;24.60;;
75810;SDS011;64449;50.016;19.954;2022-11-21T14:59:51;38.80;;;22.70;;
75810;SDS011;64449;50.016;19.954;2022-11-21T15:02:20;45.10;;;25.20;;
75810;SDS011;64449;50.016;19.954;2022-11-21T15:04:48;46.10;;;24.10;;
75810;SDS011;64449;50.016;19.954;2022-11-21T15:07:19;41.50;;;23.90;;
75810;SDS011;64449;50.016;19.954;2022-11-21T15:09:45;39.30;;;22.80;;
75810;SDS011;64449;50.016;19.954;2022-11-21T15:12:11;43.00;;;23.40;;
75810;SDS011;64449;50.016;19.954;2022-11-21T15:14:41;39.50;;;22.80;;
75810;SDS011;64449;50.016;19.954;2022-11-21T15:17:28;44.70;;;25.40;;
75810;SDS011;64449;50.016;19.954;2022-11-21T15:22:32;43.80;;;22.70;;
75810;SDS011;64449;50.016;19.954;2022-11-21T15:27:39;35.30;;;20.60;;
75810;SDS011;64449;50.016;19.954;2022-11-21T15:37:59;39.00;;;21.40;;
75810;SDS011;64449;50.016;19.954;2022-11-21T15:40:25;39.50;;;21.80;;
75810;SDS011;64449;50.016;19.954;2022-11-21T15:42:50;35.00;;;20.40;;
75810;SDS011;64449;50.016;19.954;2022-11-21T15:50:06;31.20;;;17.70;;
75810;SDS011;64449;50.016;19.954;2022-11-21T15:52:48;41.00;;;21.90;;
75810;SDS011;64449;50.016;19.954;2022-11-21T15:55:23;37.00;;;20.00;;
75810;SDS011;64449;50.016;19.954;2022-11-21T15:57:50;46.50;;;23.90;;
75810;SDS011;64449;50.016;19.954;2022-11-21T16:00:16;35.20;;;20.60;;
75810;SDS011;64449;50.016;19.954;2022-11-21T16:02:42;45.40;;;21.30;;
75810;SDS011;64449;50.016;19.954;2022-11-21T16:05:10;36.90;;;19.40;;
75810;SDS011;64449;50.016;19.954;2022-11-21T16:07:37;35.10;;;20.00;;
75810;SDS011;64449;50.016;19.954;2022-11-21T16:10:03;31.60;;;18.20;;
75810;SDS011;64449;50.016;19.954;2022-11-21T16:12:29;37.70;;;19.70;;
75810;SDS011;64449;50.016;19.954;2022-11-21T16:17:20;32.70;;;18.30;;
75810;SDS011;64449;50.016;19.954;2022-11-21T16:19:45;31.50;;;17.20;;
75810;SDS011;64449;50.016;19.954;2022-11-21T16:22:11;31.60;;;16.10;;
75810;SDS011;64449;50.016;19.954;2022-11-21T16:24:36;34.20;;;18.80;;
75810;SDS011;64449;50.016;19.954;2022-11-21T16:27:01;29.20;;;15.90;;
75810;SDS011;64449;50.016;19.954;2022-11-21T16:29:27;30.10;;;17.30;;
75810;SDS011;64449;50.016;19.954;2022-11-21T16:31:53;31.40;;;18.30;;
75810;SDS011;64449;50.016;19.954;2022-11-21T16:34:20;36.00;;;17.70;;
75810;SDS011;64449;50.016;19.954;2022-11-21T16:36:46;38.90;;;21.00;;
75810;SDS011;64449;50.016;19.954;2022-11-21T16:39:12;35.10;;;19.50;;
75810;SDS011;64449;50.016;19.954;2022-11-21T16:41:37;37.80;;;19.80;;
75810;SDS011;64449;50.016;19.954;2022-11-21T16:44:05;32.90;;;18.60;;
75810;SDS011;64449;50.016;19.954;2022-11-21T16:46:37;37.40;;;21.20;;
75810;SDS011;64449;50.016;19.954;2022-11-21T16:49:07;33.20;;;16.00;;
75810;SDS011;64449;50.016;19.954;2022-11-21T16:51:33;33.50;;;18.10;;
75810;SDS011;64449;50.016;19.954;2022-11-21T16:53:59;27.10;;;14.50;;
75810;SDS011;64449;50.016;19.954;2022-11-21T16:56:24;26.20;;;16.10;;
75810;SDS011;64449;50.016;19.954;2022-11-21T16:58:50;26.10;;;15.60;;
75810;SDS011;64449;50.016;19.954;2022-11-21T17:01:16;25.30;;;14.40;;
75810;SDS011;64449;50.016;19.954;2022-11-21T17:03:44;25.60;;;15.50;;
75810;SDS011;64449;50.016;19.954;2022-11-21T17:06:11;28.80;;;14.80;;
75810;SDS011;64449;50.016;19.954;2022-11-21T17:08:38;32.40;;;17.90;;
75810;SDS011;64449;50.016;19.954;2022-11-21T17:13:40;32.20;;;16.70;;
75810;SDS011;64449;50.016;19.954;2022-11-21T17:16:07;30.00;;;16.70;;